Terminal Aerodrome Forecast
Issued by NWS Sterling, VA

Current Version | Previous Version | Text Only | Print | Product List | Glossary Off
Versions: 1 2 3 4 5 6 7 8 9 10 11 12 13 14 15 16 17 18 19

000
FTUS41 KLWX 191736
TAFMRB
TAF
KMRB 191736Z 1918/2018 17009KT P6SM SCT025 OVC040
     FM200000 16005KT P6SM SCT025 BKN060
     FM201000 21007KT 5SM BR FEW025 SCT200
     FM201500 21007KT P6SM SCT200=

USA.gov is the U.S. government's official web portal to all federal, state and local government web resources and services.